Time;durP1;ratioP1;P1;durP2;ratioP2;P2;SDS_P1;SDS_P2;PMS_P1;PMS_P2;Temp;Humidity;BMP_temperature;BMP_pressure;BME280_temperature;BME280_humidity;BME280_pressure;Samples;Min_cycle;Max_cycle;Signal;HPM_P1;HPM_P2
2023/07/10 00:00:44;;;;;;;2.65;2.45;;;20.60;71.40;;;;;;5008763;28;20034;-53
2023/07/10 00:03:10;;;;;;;3.13;2.28;;;20.60;71.60;;;;;;5008899;28;20038;-54
2023/07/10 00:05:35;;;;;;;2.55;2.25;;;20.50;71.80;;;;;;5008780;28;20027;-52
2023/07/10 00:08:01;;;;;;;2.40;2.08;;;20.50;71.90;;;;;;5008802;28;20042;-51
2023/07/10 00:10:29;;;;;;;2.90;2.15;;;20.50;72.00;;;;;;5008769;28;20054;-53
2023/07/10 00:12:55;;;;;;;2.40;2.20;;;20.50;72.20;;;;;;5009036;28;20475;-55
2023/07/10 00:15:22;;;;;;;2.60;2.40;;;20.50;72.40;;;;;;5008159;28;20029;-54
2023/07/10 00:17:50;;;;;;;3.15;2.78;;;20.50;72.60;;;;;;5008885;28;20052;-53
2023/07/10 00:20:25;;;;;;;3.35;2.47;;;20.50;72.80;;;;;;5008465;28;20034;-55
2023/07/10 00:22:51;;;;;;;2.60;2.40;;;20.50;72.90;;;;;;5008166;28;20105;-54
2023/07/10 00:25:17;;;;;;;2.60;2.40;;;20.50;73.20;;;;;;5007980;28;20054;-52
2023/07/10 00:27:47;;;;;;;2.55;2.15;;;20.40;73.20;;;;;;5007153;28;20058;-52
2023/07/10 00:30:15;;;;;;;2.50;2.30;;;20.40;73.40;;;;;;5007987;28;20026;-52
2023/07/10 00:32:45;;;;;;;2.88;2.45;;;20.40;73.50;;;;;;5008405;28;20030;-52
2023/07/10 00:35:16;;;;;;;2.42;2.17;;;20.40;73.50;;;;;;5007849;28;20030;-54
2023/07/10 00:37:44;;;;;;;2.47;2.28;;;20.40;73.60;;;;;;5008112;28;20026;-50
2023/07/10 00:40:18;;;;;;;2.60;2.05;;;20.40;73.80;;;;;;5007831;28;20026;-52
2023/07/10 00:42:44;;;;;;;2.45;2.25;;;20.40;73.80;;;;;;5008465;28;20030;-52
2023/07/10 00:45:14;;;;;;;2.97;2.35;;;20.40;74.00;;;;;;5007913;28;20017;-54
2023/07/10 00:47:43;;;;;;;2.58;2.38;;;20.40;74.20;;;;;;5007940;28;20029;-53
2023/07/10 00:50:30;;;;;;;3.33;2.47;;;20.40;74.30;;;;;;5007898;28;20035;-53
2023/07/10 00:52:58;;;;;;;2.53;2.33;;;20.30;74.30;;;;;;5007343;28;20030;-54
2023/07/10 00:55:33;;;;;;;4.35;2.47;;;20.30;74.60;;;;;;5007650;28;20105;-52
2023/07/10 00:58:29;;;;;;;2.58;2.38;;;20.30;74.70;;;;;;5007759;28;20085;-52
2023/07/10 01:01:14;;;;;;;2.33;2.13;;;20.30;74.70;;;;;;5008703;28;20030;-52
2023/07/10 01:03:41;;;;;;;2.20;2.00;;;20.30;75.00;;;;;;5025295;28;20037;-49
2023/07/10 01:06:13;;;;;;;2.50;2.30;;;20.20;75.10;;;;;;5027512;28;20085;-55
2023/07/10 01:08:42;;;;;;;3.08;2.55;;;20.20;75.20;;;;;;5027595;28;20029;-54
2023/07/10 01:11:08;;;;;;;2.45;2.30;;;20.20;75.40;;;;;;5026976;28;20021;-53
2023/07/10 01:13:37;;;;;;;3.22;2.92;;;20.20;75.40;;;;;;5027442;28;20037;-53
2023/07/10 01:16:03;;;;;;;2.83;2.55;;;20.20;75.60;;;;;;5026735;28;20026;-50
2023/07/10 01:18:29;;;;;;;2.70;2.42;;;20.20;75.70;;;;;;5028216;28;20048;-52
2023/07/10 01:21:08;;;;;;;2.60;2.40;;;20.20;75.90;;;;;;5026895;28;20022;-52
2023/07/10 01:23:34;;;;;;;2.90;2.60;;;20.20;75.70;;;;;;5027213;28;20033;-52
2023/07/10 01:26:02;;;;;;;3.10;2.80;;;20.10;75.70;;;;;;5026754;28;20385;-53
2023/07/10 01:28:28;;;;;;;3.92;2.58;;;20.10;75.50;;;;;;5026727;28;20088;-52
2023/07/10 01:30:56;;;;;;;3.65;2.58;;;20.10;75.40;;;;;;5027418;28;20025;-54
2023/07/10 01:33:32;;;;;;;3.17;2.80;;;20.10;75.40;;;;;;5027588;28;20025;-53
2023/07/10 01:36:00;;;;;;;2.92;2.63;;;20.00;75.30;;;;;;5026996;28;20234;-53
2023/07/10 01:38:49;;;;;;;2.47;2.28;;;20.00;75.20;;;;;;5028370;28;20022;-52
2023/07/10 01:41:31;;;;;;;2.70;2.50;;;20.00;75.00;;;;;;5030779;28;20030;-53
2023/07/10 01:43:57;;;;;;;3.50;2.50;;;20.00;75.00;;;;;;5030355;28;20028;-52
2023/07/10 01:46:27;;;;;;;2.85;2.45;;;20.00;75.10;;;;;;5030058;28;20045;-51
2023/07/10 01:49:00;;;;;;;3.00;2.80;;;20.00;75.10;;;;;;5029371;28;20060;-51
2023/07/10 01:51:25;;;;;;;3.25;2.95;;;20.00;75.30;;;;;;5029391;28;20026;-52
2023/07/10 01:53:51;;;;;;;4.28;3.03;;;20.00;75.40;;;;;;5030233;28;20086;-55
2023/07/10 01:56:20;;;;;;;3.10;2.80;;;19.90;75.60;;;;;;5030309;28;20038;-52
2023/07/10 01:58:46;;;;;;;2.60;2.40;;;19.90;75.90;;;;;;5029859;28;20034;-54
2023/07/10 02:01:11;;;;;;;3.58;3.05;;;19.90;76.00;;;;;;5029633;28;20050;-52
2023/07/10 02:03:37;;;;;;;3.53;2.92;;;19.90;76.20;;;;;;5029979;28;20125;-53
2023/07/10 02:06:23;;;;;;;4.25;3.08;;;19.90;76.20;;;;;;5029840;28;20045;-53
2023/07/10 02:08:49;;;;;;;3.20;2.90;;;19.90;76.20;;;;;;4968771;29;20115;-52
2023/07/10 02:11:15;;;;;;;3.17;2.75;;;19.90;76.20;;;;;;4968880;29;20035;-51
2023/07/10 02:13:40;;;;;;;2.85;2.53;;;19.90;76.10;;;;;;4969161;29;20050;-52
2023/07/10 02:16:10;;;;;;;3.47;2.88;;;19.90;76.20;;;;;;4969449;29;20032;-52
2023/07/10 02:18:36;;;;;;;3.25;2.95;;;19.90;76.20;;;;;;4968697;29;20034;-52
2023/07/10 02:21:01;;;;;;;3.08;2.88;;;19.90;76.40;;;;;;4968487;29;20066;-53
2023/07/10 02:23:29;;;;;;;3.05;2.75;;;19.90;76.30;;;;;;4968813;29;20058;-52
2023/07/10 02:25:55;;;;;;;3.10;2.80;;;20.00;76.30;;;;;;4969033;29;20067;-52
2023/07/10 02:28:20;;;;;;;3.63;2.97;;;20.00;76.10;;;;;;4968909;29;20054;-54
2023/07/10 02:30:46;;;;;;;3.20;2.90;;;20.00;76.10;;;;;;4968554;29;20043;-52
2023/07/10 02:33:12;;;;;;;3.38;3.08;;;20.00;76.10;;;;;;4968569;29;20046;-54
2023/07/10 02:35:38;;;;;;;4.18;3.00;;;20.00;75.90;;;;;;4968442;29;20039;-52
2023/07/10 02:38:04;;;;;;;3.40;3.10;;;20.00;75.90;;;;;;4969674;29;20122;-52
2023/07/10 02:40:29;;;;;;;3.72;3.08;;;20.00;75.80;;;;;;5016847;28;20173;-53
2023/07/10 02:42:55;;;;;;;3.10;2.80;;;20.10;75.80;;;;;;5029146;28;20479;-51
2023/07/10 02:45:20;;;;;;;2.67;2.47;;;20.10;75.80;;;;;;5028525;28;20090;-52
2023/07/10 02:47:46;;;;;;;4.03;3.08;;;20.10;75.60;;;;;;5011292;28;20033;-51
2023/07/10 02:50:12;;;;;;;3.35;2.85;;;20.20;75.70;;;;;;5028170;28;20029;-52
2023/07/10 02:52:37;;;;;;;3.75;3.22;;;20.20;75.60;;;;;;5028595;28;20033;-50
2023/07/10 02:55:03;;;;;;;5.07;3.05;;;20.20;75.60;;;;;;5028478;28;20050;-51
2023/07/10 02:57:29;;;;;;;3.45;2.88;;;20.20;75.70;;;;;;5027966;28;20045;-50
2023/07/10 02:59:54;;;;;;;3.40;3.10;;;20.10;75.70;;;;;;5028922;28;20038;-51
2023/07/10 03:02:20;;;;;;;3.30;3.00;;;20.20;75.80;;;;;;5028318;28;20026;-52
2023/07/10 03:04:46;;;;;;;4.90;3.13;;;20.20;75.90;;;;;;5029117;28;20470;-52
2023/07/10 03:07:11;;;;;;;4.47;3.45;;;20.20;76.00;;;;;;5028362;28;20033;-53
2023/07/10 03:09:37;;;;;;;3.72;3.20;;;20.20;76.00;;;;;;5028342;28;20056;-52
2023/07/10 03:12:03;;;;;;;3.65;3.25;;;20.20;76.00;;;;;;5028514;28;20030;-55
2023/07/10 03:14:29;;;;;;;4.22;2.92;;;20.20;76.10;;;;;;5027671;28;20034;-54
2023/07/10 03:16:54;;;;;;;3.55;3.15;;;20.20;76.10;;;;;;5028924;28;20098;-53
2023/07/10 03:19:20;;;;;;;4.35;3.38;;;20.20;76.10;;;;;;5027870;28;20052;-55
2023/07/10 03:21:45;;;;;;;3.40;3.10;;;20.20;76.10;;;;;;5028263;28;20057;-53
2023/07/10 03:24:11;;;;;;;3.95;3.60;;;20.20;76.20;;;;;;5027944;28;20065;-52
2023/07/10 03:26:37;;;;;;;3.72;3.05;;;20.20;76.30;;;;;;5028683;28;20072;-54
2023/07/10 03:29:09;;;;;;;3.78;2.97;;;20.30;76.30;;;;;;5028748;28;20387;-53
2023/07/10 03:31:34;;;;;;;3.85;3.25;;;20.30;76.50;;;;;;5028411;28;20033;-48
2023/07/10 03:34:00;;;;;;;3.58;3.20;;;20.40;76.50;;;;;;5028215;28;20046;-55
2023/07/10 03:36:27;;;;;;;4.15;3.40;;;20.50;76.70;;;;;;5027899;28;20462;-53
2023/07/10 03:38:52;;;;;;;3.38;3.08;;;20.60;76.70;;;;;;5026919;28;20485;-53
2023/07/10 03:41:19;;;;;;;3.63;3.33;;;20.80;77.30;;;;;;5026076;28;20156;-53
2023/07/10 03:43:44;;;;;;;3.70;3.20;;;21.10;77.40;;;;;;5026243;28;20429;-53
2023/07/10 03:46:11;;;;;;;4.47;3.15;;;21.40;77.20;;;;;;5026625;28;20109;-50
2023/07/10 03:48:37;;;;;;;4.00;3.35;;;21.90;77.00;;;;;;5026967;28;20037;-54
2023/07/10 03:51:03;;;;;;;4.97;3.22;;;22.40;76.30;;;;;;5026719;28;20036;-53
2023/07/10 03:53:29;;;;;;;3.97;3.10;;;23.20;74.80;;;;;;5026958;28;20025;-52
2023/07/10 03:55:55;;;;;;;4.05;3.20;;;24.00;73.20;;;;;;5027128;28;20053;-52
2023/07/10 03:58:24;;;;;;;3.63;2.90;;;24.80;71.40;;;;;;5027412;28;20034;-51
2023/07/10 04:00:50;;;;;;;4.53;3.00;;;25.60;69.50;;;;;;5027745;28;20026;-48
2023/07/10 04:03:16;;;;;;;3.35;3.05;;;26.30;68.00;;;;;;5028133;28;20500;-50
2023/07/10 04:05:48;;;;;;;3.60;2.88;;;27.00;66.80;;;;;;5028631;28;20049;-51
2023/07/10 04:08:13;;;;;;;3.80;2.67;;;27.70;65.40;;;;;;5028797;28;20041;-50
2023/07/10 04:10:39;;;;;;;3.50;3.20;;;28.40;64.20;;;;;;5028330;28;20014;-51
2023/07/10 04:13:05;;;;;;;3.03;2.72;;;28.90;62.90;;;;;;5027826;28;20037;-49
2023/07/10 04:15:30;;;;;;;3.17;2.50;;;29.50;61.80;;;;;;5027728;28;20038;-53
2023/07/10 04:17:56;;;;;;;4.65;2.95;;;30.00;60.70;;;;;;5027724;28;20026;-54
2023/07/10 04:20:21;;;;;;;3.58;2.78;;;30.50;59.70;;;;;;5027816;28;20037;-53
2023/07/10 04:22:47;;;;;;;2.65;2.45;;;31.00;58.90;;;;;;5026339;28;20236;-51
2023/07/10 04:25:14;;;;;;;3.10;2.80;;;31.50;58.10;;;;;;5026101;28;20030;-51
2023/07/10 04:27:39;;;;;;;2.92;2.60;;;31.90;57.30;;;;;;5025661;28;20026;-51
2023/07/10 04:30:06;;;;;;;2.80;2.53;;;32.40;56.70;;;;;;5025834;28;20402;-51
2023/07/10 04:32:31;;;;;;;2.83;2.63;;;32.70;55.90;;;;;;5026245;28;20056;-54
2023/07/10 04:34:57;;;;;;;2.60;2.40;;;33.10;55.30;;;;;;5027522;28;20034;-54
2023/07/10 04:37:22;;;;;;;3.35;2.50;;;33.50;55.00;;;;;;5029111;28;20042;-50
2023/07/10 04:39:48;;;;;;;2.70;2.42;;;33.80;54.30;;;;;;5028854;28;20034;-53
2023/07/10 04:42:14;;;;;;;2.30;2.10;;;34.10;54.50;;;;;;5028469;28;20085;-53
2023/07/10 04:44:39;;;;;;;2.10;2.00;;;34.40;53.40;;;;;;5028274;28;20490;-54
2023/07/10 04:47:05;;;;;;;2.55;2.25;;;34.80;52.90;;;;;;5028067;28;20081;-53
2023/07/10 04:49:31;;;;;;;2.60;2.40;;;35.00;52.10;;;;;;5025595;28;20045;-52
2023/07/10 04:51:56;;;;;;;2.35;2.25;;;35.30;51.60;;;;;;5026266;28;20029;-55
2023/07/10 04:54:22;;;;;;;3.00;2.65;;;35.40;51.30;;;;;;5026598;28;20022;-55
2023/07/10 04:56:49;;;;;;;2.58;2.38;;;35.50;50.90;;;;;;5026099;28;20054;-53
2023/07/10 04:59:15;;;;;;;2.17;2.08;;;35.60;50.90;;;;;;5025758;28;20029;-53
2023/07/10 05:01:40;;;;;;;2.90;2.60;;;35.70;50.70;;;;;;5025675;28;20026;-54
2023/07/10 05:04:06;;;;;;;2.60;2.40;;;35.90;50.50;;;;;;5024700;28;20034;-54
2023/07/10 05:06:31;;;;;;;2.45;2.25;;;36.10;50.30;;;;;;5024310;28;20045;-53
2023/07/10 05:09:00;;;;;;;2.53;2.28;;;36.30;50.00;;;;;;5023410;28;20902;-54
2023/07/10 05:11:29;;;;;;;2.22;2.13;;;36.50;49.70;;;;;;5022587;28;20097;-55
2023/07/10 05:13:55;;;;;;;2.20;2.10;;;36.70;49.30;;;;;;5024735;28;20033;-54
2023/07/10 05:16:22;;;;;;;2.38;2.17;;;36.90;48.90;;;;;;5025623;28;20033;-54
2023/07/10 05:18:47;;;;;;;3.10;2.20;;;37.00;48.50;;;;;;5024689;28;20389;-54
2023/07/10 05:21:13;;;;;;;1.98;1.88;;;37.10;48.20;;;;;;5024867;28;20085;-53
2023/07/10 05:23:39;;;;;;;3.08;2.20;;;37.20;47.60;;;;;;5025452;28;20441;-56
2023/07/10 05:26:06;;;;;;;2.03;1.92;;;37.20;46.90;;;;;;5025208;28;20026;-55
2023/07/10 05:28:32;;;;;;;2.53;2.33;;;37.00;46.30;;;;;;5033928;28;20041;-54
2023/07/10 05:30:59;;;;;;;2.05;1.92;;;36.50;46.10;;;;;;5036443;28;20030;-55
2023/07/10 05:33:25;;;;;;;2.92;2.20;;;35.80;46.40;;;;;;5029204;28;20034;-54
2023/07/10 05:35:56;;;;;;;2.83;2.63;;;34.90;47.30;;;;;;5036224;28;20024;-55
2023/07/10 05:38:24;;;;;;;2.22;2.03;;;33.90;47.90;;;;;;5034935;28;20022;-54
2023/07/10 05:40:50;;;;;;;2.55;2.35;;;33.00;48.70;;;;;;5033374;28;20025;-54
2023/07/10 05:43:15;;;;;;;2.50;2.30;;;32.20;49.70;;;;;;5031867;28;20073;-55
2023/07/10 05:45:41;;;;;;;3.15;2.58;;;31.50;50.40;;;;;;5033469;28;20014;-53
2023/07/10 05:48:08;;;;;;;3.10;2.80;;;30.80;51.00;;;;;;5029294;28;20026;-55
2023/07/10 05:50:33;;;;;;;2.60;2.40;;;30.20;51.70;;;;;;5035331;28;20209;-53
2023/07/10 05:52:59;;;;;;;2.88;2.60;;;29.70;52.40;;;;;;5032696;28;20034;-55
2023/07/10 05:55:25;;;;;;;3.10;2.65;;;29.20;53.00;;;;;;5036700;28;20030;-52
2023/07/10 05:57:50;;;;;;;3.05;2.80;;;28.90;53.60;;;;;;5029878;28;20038;-54
2023/07/10 06:00:16;;;;;;;3.17;2.88;;;28.50;54.00;;;;;;5033167;28;20082;-53
2023/07/10 06:02:42;;;;;;;3.15;2.85;;;28.20;54.40;;;;;;5028859;28;20057;-55
2023/07/10 06:05:08;;;;;;;3.40;2.78;;;28.00;54.90;;;;;;5029182;28;20058;-55
2023/07/10 06:07:34;;;;;;;3.75;2.63;;;27.70;55.20;;;;;;5028710;28;20036;-55
2023/07/10 06:09:59;;;;;;;4.40;2.90;;;27.50;55.60;;;;;;5031873;28;20037;-54
2023/07/10 06:12:25;;;;;;;3.00;2.70;;;27.30;55.60;;;;;;5029000;28;20073;-55
2023/07/10 06:14:50;;;;;;;4.03;2.78;;;27.10;55.70;;;;;;5036380;28;20037;-55
2023/07/10 06:17:16;;;;;;;2.83;2.58;;;27.00;56.00;;;;;;5035308;28;20041;-54
2023/07/10 06:19:42;;;;;;;3.05;2.75;;;26.80;56.40;;;;;;5029479;28;20106;-55
2023/07/10 06:22:12;;;;;;;3.80;2.85;;;26.70;56.80;;;;;;5022464;28;20038;-55
2023/07/10 06:24:38;;;;;;;;;;;26.60;56.90;;;;;;5027221;28;20042;-54
2023/07/10 06:27:05;;;;;;;2.90;2.70;;;26.50;57.00;;;;;;5026968;28;19912;-54
2023/07/10 06:29:33;;;;;;;2.92;2.72;;;26.40;57.10;;;;;;5026856;28;20098;-55
2023/07/10 06:31:58;;;;;;;2.92;2.70;;;26.30;57.30;;;;;;5028362;28;20068;-52
2023/07/10 06:34:24;;;;;;;2.90;2.70;;;26.30;57.60;;;;;;5030734;28;20053;-55
2023/07/10 06:36:50;;;;;;;3.22;2.85;;;26.20;57.70;;;;;;5028792;28;20029;-54
2023/07/10 06:39:15;;;;;;;2.92;2.60;;;26.10;57.90;;;;;;5027294;28;20010;-54
2023/07/10 06:41:41;;;;;;;2.90;2.67;;;26.10;58.10;;;;;;5029932;28;20015;-54
2023/07/10 06:44:07;;;;;;;3.13;2.83;;;26.00;58.20;;;;;;5024552;28;20029;-55
2023/07/10 06:46:33;;;;;;;3.08;2.78;;;26.00;58.60;;;;;;5024823;28;20049;-54
2023/07/10 06:48:58;;;;;;;2.90;2.60;;;26.00;58.80;;;;;;5025739;28;20018;-53
2023/07/10 06:51:24;;;;;;;3.95;2.60;;;25.90;58.80;;;;;;5029180;28;20068;-55
2023/07/10 06:53:50;;;;;;;3.03;2.72;;;25.90;58.80;;;;;;5030424;28;20010;-54
2023/07/10 06:56:15;;;;;;;3.22;2.70;;;25.90;58.80;;;;;;5030236;28;20834;-52
2023/07/10 06:58:41;;;;;;;3.08;2.78;;;25.90;58.70;;;;;;5028905;28;20820;-53
2023/07/10 07:01:07;;;;;;;3.50;2.90;;;25.80;58.70;;;;;;5022059;28;20034;-53
2023/07/10 07:03:32;;;;;;;2.53;2.33;;;25.80;58.60;;;;;;5024300;28;20022;-55
2023/07/10 07:05:58;;;;;;;3.53;2.83;;;25.80;58.50;;;;;;5020900;28;20450;-52
2023/07/10 07:08:24;;;;;;;3.35;2.72;;;25.70;58.80;;;;;;5017634;28;20034;-53
2023/07/10 07:10:52;;;;;;;3.13;2.47;;;25.70;58.40;;;;;;5014137;28;20072;-53
2023/07/10 07:13:20;;;;;;;3.40;2.97;;;25.70;58.30;;;;;;5022831;28;20022;-53
2023/07/10 07:15:53;;;;;;;2.58;2.38;;;25.70;58.40;;;;;;5024123;28;20045;-52
2023/07/10 07:18:20;;;;;;;2.97;2.58;;;25.60;58.60;;;;;;5018840;28;20568;-51
2023/07/10 07:20:47;;;;;;;2.95;2.63;;;25.60;58.90;;;;;;5011053;28;20169;-54
2023/07/10 07:23:13;;;;;;;3.05;2.75;;;25.60;59.10;;;;;;5008512;28;20026;-53
2023/07/10 07:25:40;;;;;;;2.50;2.30;;;25.60;59.10;;;;;;5013385;28;20129;-51
2023/07/10 07:28:06;;;;;;;2.60;2.40;;;25.60;59.20;;;;;;5012198;28;20033;-52
2023/07/10 07:30:32;;;;;;;2.60;2.35;;;25.60;59.00;;;;;;5017868;28;20018;-51
2023/07/10 07:32:58;;;;;;;3.08;2.53;;;25.60;58.80;;;;;;5009845;28;20080;-54
2023/07/10 07:35:23;;;;;;;2.63;2.42;;;25.60;58.80;;;;;;4990429;28;20030;-54
2023/07/10 07:37:49;;;;;;;3.97;2.65;;;25.60;59.00;;;;;;5014587;28;20030;-53
2023/07/10 07:40:18;;;;;;;2.78;2.47;;;25.60;59.20;;;;;;5014644;28;20053;-52
2023/07/10 07:42:44;;;;;;;2.60;2.40;;;25.60;58.50;;;;;;5013591;28;20322;-52
2023/07/10 07:45:10;;;;;;;3.25;2.35;;;25.60;58.60;;;;;;5011065;28;20033;-51
2023/07/10 07:47:36;;;;;;;3.20;2.40;;;25.60;58.50;;;;;;5012570;28;20038;-51
2023/07/10 07:50:02;;;;;;;2.47;2.25;;;25.60;58.50;;;;;;5009081;28;20029;-54
2023/07/10 07:52:28;;;;;;;2.80;2.50;;;25.60;58.60;;;;;;5007206;28;20557;-52
2023/07/10 07:54:53;;;;;;;3.47;2.40;;;25.50;58.50;;;;;;5003905;28;20105;-53
2023/07/10 07:57:22;;;;;;;2.85;2.58;;;25.50;58.70;;;;;;5010503;28;20050;-50
2023/07/10 07:59:48;;;;;;;2.95;2.65;;;25.50;58.90;;;;;;5013157;28;20038;-51
2023/07/10 08:02:14;;;;;;;3.00;2.70;;;25.50;59.10;;;;;;5012794;28;20033;-50
2023/07/10 08:04:41;;;;;;;3.25;2.70;;;25.50;59.10;;;;;;5007443;28;20213;-52
2023/07/10 08:07:07;;;;;;;2.65;2.45;;;25.50;59.30;;;;;;4996884;28;20375;-52
2023/07/10 08:09:33;;;;;;;3.08;2.60;;;25.50;59.30;;;;;;5012888;28;20048;-50
2023/07/10 08:11:59;;;;;;;3.85;2.78;;;25.40;59.10;;;;;;5018546;28;20097;-53
2023/07/10 08:14:25;;;;;;;2.90;2.60;;;25.50;59.20;;;;;;5019863;28;20029;-54
2023/07/10 08:16:52;;;;;;;2.40;2.20;;;25.50;59.10;;;;;;5022074;28;20042;-53
2023/07/10 08:19:18;;;;;;;2.80;2.60;;;25.40;59.10;;;;;;5018977;28;20061;-54
2023/07/10 08:21:43;;;;;;;3.15;2.80;;;25.40;59.10;;;;;;5013636;28;20041;-54
2023/07/10 08:24:09;;;;;;;3.50;2.72;;;25.40;59.10;;;;;;5013914;28;20030;-54
2023/07/10 08:26:35;;;;;;;2.83;2.60;;;25.40;59.30;;;;;;5011746;28;20053;-52
2023/07/10 08:29:31;;;;;;;2.65;2.45;;;25.40;59.30;;;;;;5004601;28;20045;-53
2023/07/10 08:31:58;;;;;;;2.47;2.28;;;25.40;59.30;;;;;;5012560;28;20029;-53
2023/07/10 08:34:26;;;;;;;2.88;2.53;;;25.40;59.40;;;;;;5012968;28;20184;-53
2023/07/10 08:36:52;;;;;;;2.75;2.55;;;25.30;59.50;;;;;;5018945;28;20033;-55
2023/07/10 08:39:18;;;;;;;2.63;2.40;;;25.30;59.30;;;;;;5011805;28;20042;-52
2023/07/10 08:41:47;;;;;;;2.50;2.30;;;25.30;59.20;;;;;;5013976;28;20075;-52
2023/07/10 08:44:13;;;;;;;2.90;2.65;;;25.30;59.20;;;;;;5009459;28;20022;-53
2023/07/10 08:46:38;;;;;;;3.75;2.80;;;25.20;59.10;;;;;;5013628;28;20118;-52
2023/07/10 08:49:20;;;;;;;2.60;2.38;;;25.20;59.00;;;;;;5014984;28;20061;-52
2023/07/10 08:51:55;;;;;;;2.97;2.58;;;25.20;58.80;;;;;;5015486;28;20040;-54
2023/07/10 08:54:21;;;;;;;2.33;2.05;;;25.20;58.90;;;;;;5018313;28;20060;-53
2023/07/10 08:57:21;;;;;;;2.95;2.65;;;25.20;58.90;;;;;;5020189;28;20039;-54
2023/07/10 08:59:57;;;;;;;2.92;2.63;;;25.10;58.50;;;;;;5008091;28;20029;-51
2023/07/10 09:02:38;;;;;;;2.80;2.60;;;25.10;58.60;;;;;;5002705;28;20034;-52
2023/07/10 09:05:16;;;;;;;2.60;2.40;;;25.00;58.70;;;;;;5011127;28;20034;-53
2023/07/10 09:07:44;;;;;;;2.67;2.47;;;25.00;58.90;;;;;;5009855;28;20378;-53
2023/07/10 09:10:32;;;;;;;3.10;2.50;;;24.90;58.90;;;;;;5006202;28;20030;-52
2023/07/10 09:13:04;;;;;;;2.80;2.60;;;24.90;59.00;;;;;;5000599;28;20045;-49
2023/07/10 09:15:36;;;;;;;2.55;2.35;;;24.90;59.00;;;;;;5003595;28;20136;-52
2023/07/10 09:18:22;;;;;;;2.35;2.13;;;24.90;59.00;;;;;;5005367;28;20030;-53
2023/07/10 09:20:56;;;;;;;2.85;2.55;;;24.80;59.00;;;;;;5007910;28;20113;-51
2023/07/10 09:23:23;;;;;;;3.00;2.70;;;24.80;59.10;;;;;;5001708;28;20052;-48
2023/07/10 09:25:58;;;;;;;2.70;2.50;;;24.80;59.10;;;;;;5009842;28;20022;-51
2023/07/10 09:28:25;;;;;;;3.17;2.72;;;24.80;59.20;;;;;;5004272;28;21727;-52
2023/07/10 09:31:11;;;;;;;3.30;2.78;;;24.80;59.30;;;;;;5011818;28;20038;-51
2023/07/10 09:33:37;;;;;;;2.85;2.65;;;24.80;59.20;;;;;;5022229;28;20235;-54
2023/07/10 09:36:12;;;;;;;3.03;2.63;;;24.80;59.30;;;;;;5019412;28;20018;-53
2023/07/10 09:38:41;;;;;;;2.60;2.40;;;24.80;59.50;;;;;;5021778;28;20033;-50
2023/07/10 09:41:12;;;;;;;3.63;2.75;;;24.80;59.30;;;;;;5018680;28;20034;-52
2023/07/10 09:43:39;;;;;;;;;;;24.80;59.30;;;;;;5020361;28;20063;-51
2023/07/10 09:46:10;;;;;;;2.70;2.50;;;24.80;59.70;;;;;;5000210;28;19913;-50
2023/07/10 09:48:38;;;;;;;2.50;2.30;;;24.80;59.40;;;;;;5022193;28;20034;-52
2023/07/10 09:51:07;;;;;;;2.60;2.40;;;24.90;59.50;;;;;;5013233;28;20041;-54
2023/07/10 09:53:48;;;;;;;2.97;2.67;;;24.90;59.50;;;;;;5011622;28;20032;-53
2023/07/10 09:56:24;;;;;;;2.83;2.63;;;24.90;59.30;;;;;;5009142;28;20038;-50
2023/07/10 09:58:55;;;;;;;2.55;2.35;;;24.90;59.50;;;;;;5015238;28;20034;-52
2023/07/10 10:01:26;;;;;;;2.65;2.45;;;24.90;59.40;;;;;;5021799;28;20030;-52
2023/07/10 10:03:53;;;;;;;2.88;2.60;;;24.80;59.50;;;;;;5023378;28;20089;-52
2023/07/10 10:06:22;;;;;;;3.25;2.80;;;24.80;59.60;;;;;;5019969;28;20036;-54
2023/07/10 10:08:49;;;;;;;2.97;2.60;;;24.80;59.90;;;;;;5016697;28;20030;-54
2023/07/10 10:11:17;;;;;;;2.75;2.55;;;24.80;59.80;;;;;;5010080;28;20041;-52
2023/07/10 10:13:45;;;;;;;3.47;2.55;;;24.80;59.80;;;;;;5019100;28;20026;-53
2023/07/10 10:16:35;;;;;;;3.63;2.53;;;24.70;59.90;;;;;;5018477;28;20109;-54
2023/07/10 10:19:15;;;;;;;2.88;2.67;;;24.80;60.00;;;;;;5020398;28;20527;-53
2023/07/10 10:21:41;;;;;;;3.92;2.40;;;24.80;60.00;;;;;;5006321;28;20030;-52
2023/07/10 10:24:11;;;;;;;2.50;2.30;;;24.80;60.00;;;;;;5002752;28;20121;-52
2023/07/10 10:26:53;;;;;;;2.63;2.40;;;24.80;59.50;;;;;;5013757;28;20033;-52
2023/07/10 10:29:40;;;;;;;2.70;2.50;;;24.80;59.40;;;;;;5003997;28;20490;-52
2023/07/10 10:32:17;;;;;;;3.15;2.70;;;24.90;59.40;;;;;;5004759;28;20037;-52
2023/07/10 10:35:01;;;;;;;2.80;2.60;;;24.90;59.60;;;;;;5008970;28;20061;-54
2023/07/10 10:37:45;;;;;;;3.30;2.88;;;24.90;59.80;;;;;;5016625;28;20033;-54
2023/07/10 10:40:51;;;;;;;2.70;2.50;;;24.90;59.80;;;;;;5012501;28;20057;-52
2023/07/10 10:44:04;;;;;;;3.30;3.00;;;24.90;60.20;;;;;;5016869;28;20117;-49
2023/07/10 10:46:43;;;;;;;2.97;2.67;;;24.90;59.70;;;;;;4998717;28;20045;-53
2023/07/10 10:49:53;;;;;;;2.92;2.67;;;24.90;59.40;;;;;;5012155;28;20033;-55
2023/07/10 10:52:44;;;;;;;4.80;3.00;;;25.00;59.40;;;;;;4951158;28;20147;-53
2023/07/10 10:55:31;;;;;;;4.20;2.55;;;25.00;59.70;;;;;;5005183;28;20264;-51
2023/07/10 10:58:15;;;;;;;3.22;2.90;;;25.00;59.70;;;;;;5008339;28;20034;-50
2023/07/10 11:01:17;;;;;;;2.83;2.58;;;25.00;59.80;;;;;;5010234;28;20034;-53
2023/07/10 11:03:49;;;;;;;3.13;2.83;;;25.10;59.80;;;;;;5003951;28;20048;-54
2023/07/10 11:06:37;;;;;;;3.00;2.70;;;25.10;59.70;;;;;;5010017;28;20517;-55
2023/07/10 11:09:14;;;;;;;2.85;2.65;;;25.10;59.70;;;;;;5006090;28;20528;-52
2023/07/10 11:11:40;;;;;;;3.90;3.50;;;25.00;60.10;;;;;;5012623;28;20089;-54
2023/07/10 11:14:09;;;;;;;2.78;2.58;;;25.00;60.90;;;;;;5007142;28;20341;-54
2023/07/10 11:16:35;;;;;;;3.67;2.35;;;24.90;59.40;;;;;;5008819;28;20027;-51
2023/07/10 11:19:03;;;;;;;4.15;2.50;;;24.70;59.30;;;;;;5012103;28;20034;-53
2023/07/10 11:21:33;;;;;;;2.83;2.45;;;24.60;59.60;;;;;;5004412;28;20113;-53
2023/07/10 11:24:13;;;;;;;2.90;2.60;;;24.40;59.90;;;;;;5011135;28;20036;-55
2023/07/10 11:26:39;;;;;;;2.88;2.58;;;24.20;60.60;;;;;;5012136;28;20030;-53
2023/07/10 11:29:27;;;;;;;2.17;2.00;;;24.10;61.20;;;;;;5011913;28;20087;-55
2023/07/10 11:31:55;;;;;;;2.40;2.20;;;24.00;62.00;;;;;;4996087;28;20549;-55
2023/07/10 11:34:35;;;;;;;2.08;1.90;;;23.90;62.30;;;;;;5006556;28;20428;-55
2023/07/10 11:37:00;;;;;;;2.55;2.35;;;23.80;62.60;;;;;;5011464;28;20041;-55
2023/07/10 11:39:33;;;;;;;2.60;2.40;;;23.70;63.20;;;;;;5016211;28;20038;-52
2023/07/10 11:42:02;;;;;;;2.75;2.33;;;23.70;63.70;;;;;;5018688;28;20025;-53
2023/07/10 11:44:28;;;;;;;3.72;2.67;;;23.70;64.20;;;;;;5021645;28;20034;-52
2023/07/10 11:46:54;;;;;;;3.30;3.00;;;23.70;64.50;;;;;;5013244;28;20538;-53
2023/07/10 11:49:19;;;;;;;3.45;2.85;;;23.70;64.60;;;;;;5012308;28;20053;-55
2023/07/10 11:52:08;;;;;;;3.78;3.03;;;23.70;64.70;;;;;;5015676;28;20030;-53
2023/07/10 11:54:33;;;;;;;3.78;3.13;;;23.80;65.30;;;;;;5014124;28;20030;-52
2023/07/10 11:57:01;;;;;;;4.60;3.30;;;23.80;65.60;;;;;;5015482;28;20048;-53
2023/07/10 11:59:27;;;;;;;3.65;2.97;;;23.90;66.10;;;;;;5019076;28;20030;-54
2023/07/10 12:01:52;;;;;;;2.78;2.58;;;23.90;66.20;;;;;;5017971;28;20094;-54
2023/07/10 12:04:20;;;;;;;2.78;2.58;;;24.00;66.30;;;;;;5019553;28;20037;-52
2023/07/10 12:06:46;;;;;;;2.85;2.58;;;24.00;66.30;;;;;;5019404;28;20438;-50
2023/07/10 12:09:12;;;;;;;3.47;2.45;;;24.10;66.40;;;;;;5018128;28;20057;-55
2023/07/10 12:11:39;;;;;;;2.67;2.47;;;24.10;66.10;;;;;;5025038;28;20045;-54
2023/07/10 12:14:14;;;;;;;2.80;2.60;;;24.20;66.00;;;;;;5025652;28;20030;-51
2023/07/10 12:16:53;;;;;;;1.95;1.85;;;24.30;65.70;;;;;;5022139;28;20493;-54
2023/07/10 12:19:30;;;;;;;2.17;2.00;;;24.20;65.40;;;;;;5025915;28;20014;-51
2023/07/10 12:21:58;;;;;;;1.88;1.77;;;24.20;65.00;;;;;;5021974;28;20053;-53
2023/07/10 12:24:23;;;;;;;1.58;1.40;;;24.20;64.60;;;;;;5017902;28;20085;-52
2023/07/10 12:26:59;;;;;;;1.63;1.52;;;24.10;64.10;;;;;;5018299;28;20110;-54
2023/07/10 12:29:25;;;;;;;1.85;1.70;;;24.10;63.80;;;;;;5022760;28;20029;-55
2023/07/10 12:31:50;;;;;;;1.75;1.60;;;24.10;63.70;;;;;;5020027;28;20034;-53
2023/07/10 12:34:23;;;;;;;1.85;1.75;;;24.10;63.80;;;;;;5021348;28;20033;-54
2023/07/10 12:36:52;;;;;;;1.75;1.63;;;24.10;64.00;;;;;;5015716;28;20222;-52
2023/07/10 12:39:19;;;;;;;2.33;2.00;;;24.20;64.50;;;;;;5015493;28;20049;-52
2023/07/10 12:41:45;;;;;;;1.83;1.73;;;24.20;64.40;;;;;;5018763;28;20110;-54
2023/07/10 12:44:27;;;;;;;1.88;1.77;;;24.20;64.50;;;;;;5016264;28;20021;-53
2023/07/10 12:47:08;;;;;;;3.25;2.00;;;24.20;64.90;;;;;;5002335;28;20064;-54
2023/07/10 12:49:35;;;;;;;1.88;1.70;;;24.20;64.80;;;;;;5019224;28;20082;-52
2023/07/10 12:52:06;;;;;;;1.67;1.58;;;24.20;63.60;;;;;;5014944;28;20097;-54
2023/07/10 12:54:40;;;;;;;1.77;1.67;;;24.10;62.90;;;;;;5021456;28;20089;-56
2023/07/10 12:57:18;;;;;;;1.00;1.00;;;24.00;61.90;;;;;;5009099;28;20052;-51
2023/07/10 12:59:46;;;;;;;1.65;1.55;;;24.00;61.90;;;;;;5011636;28;20485;-55